Dousman, WI (53118)

4:22 PM CDT on August 27, 2016 (GMT -0500)
Opengate | | Change Station

Elev 892 ft 43.02 °N, 88.45 °W | Updated 24 seconds ago

Mostly Cloudy
Mostly Cloudy
81.0 °F
Feels Like 82 °F
N
0.9
Wind Variable Wind from ESE
Gusts 2.5 mph

Today
High -- | Low -- °F
--% Chance of Precip.
Yesterday
High -- | Low -- °F
Precip. -- in
Pressure 30.01 in
Visibility 10.0 miles
Clouds Scattered Clouds 1800 ft
Mostly Cloudy 5000 ft
Heat Index 82 °F
Dew Point 63 °F
Humidity 55%
Rainfall 0.89 in
Snow Depth Not available.
6:13 AM 7:36 PM
Waning Crescent, 21% visible
METAR KUES 272045Z 00000KT 10SM SCT018 BKN050 22/19 A3001
Pressure 30.01 in
Visibility 10.0 miles
Clouds Scattered Clouds 1800 ft
Mostly Cloudy 5000 ft
Heat Index 82 °F
Dew Point 63 °F
Humidity 55%
Rainfall 0.89 in
Snow Depth Not available.
6:13 AM 7:36 PM
Waning Crescent, 21% visible
METAR KUES 272045Z 00000KT 10SM SCT018 BKN050 22/19 A3001

10-Day Weather Forecast

Almanac

Astronomy

Aug. 27, 2016 Rise Set
Actual Time
Civil Twilight
Nautical Twilight
Astronomical Twilight
Moon
Length of Visible Light
Length of Day
Tomorrow will be .
, % of the Moon is Illuminated

Today's Extremes

State Highs State Lows

Community

WunderPhotos

Upload Photos

1,935,452 photos uploaded!

WunderBlog® & News

Nearby

Air Quality

  Air Quality AQ Index Pollutant
Not available.

Snow Depth

Station Depth Elevation

Earthquake Activity

City Distance Mag. Time & Date
Minimum magnitude displayed is 2.5.

Coastal Water Temperatures

Place Temperature

Stations

Nearby Weather Stations

Station Location Temp. Windchill Dew Point Humidity Wind Precip. Elev Updated Type
                   

Watches & Warnings

There are currently no watches in effect.